Time;durP1;ratioP1;P1;durP2;ratioP2;P2;SDS_P1;SDS_P2;PMS_P1;PMS_P2;Temp;Humidity;BMP_temperature;BMP_pressure;BME280_temperature;BME280_humidity;BME280_pressure;Samples;Min_cycle;Max_cycle;Signal;HPM_P1;HPM_P2
2022/03/30 00:48:02;;;;;;;23.98;9.02;;;;;;;;;;3645717;28;20507;-66
2022/03/30 00:50:28;;;;;;;24.02;9.43;;;;;;;;;;5029234;28;20107;-65
2022/03/30 00:52:56;;;;;;;28.27;8.90;;;;;;;;;;5022994;28;20046;-66
2022/03/30 00:55:23;;;;;;;29.40;9.97;;;;;;;;;;5023442;28;20073;-66
2022/03/30 00:57:49;;;;;;;23.67;9.38;;;;;;;;;;5021867;28;20303;-66
2022/03/30 01:00:16;;;;;;;29.30;9.45;;;;;;;;;;5023668;28;20044;-66
2022/03/30 01:02:44;;;;;;;25.80;9.93;;;;;;;;;;5023428;28;20118;-66
2022/03/30 01:05:10;;;;;;;23.75;9.63;;;;;;;;;;5023017;28;20053;-65
2022/03/30 05:27:35;;;;;;;9.90;2.08;;;;;;;;;;4510720;29;20585;-69
2022/03/30 05:30:02;;;;;;;3.70;1.25;;;;;;;;;;4910251;29;20123;-69
2022/03/30 05:32:29;;;;;;;2.85;0.88;;;;;;;;;;4914237;29;20040;-70
2022/03/30 05:34:56;;;;;;;1.67;0.80;;;;;;;;;;4910256;29;20402;-70
2022/03/30 05:37:24;;;;;;;2.80;0.60;;;;;;;;;;4908053;29;20048;-72
2022/03/30 05:39:50;;;;;;;1.92;0.30;;;;;;;;;;4909867;29;20408;-70
2022/03/30 05:42:17;;;;;;;0.70;0.30;;;;;;;;;;4908685;29;20040;-70
2022/03/30 05:44:44;;;;;;;0.65;0.22;;;;;;;;;;4913360;29;20048;-71
2022/03/30 05:47:10;;;;;;;2.40;0.30;;;;;;;;;;4909353;29;20398;-70
2022/03/30 05:49:37;;;;;;;1.13;0.40;;;;;;;;;;4922886;29;20040;-71
2022/03/30 05:52:03;;;;;;;0.55;0.32;;;;;;;;;;4922609;29;20048;-71
2022/03/30 05:54:30;;;;;;;0.82;0.30;;;;;;;;;;4899433;29;20079;-70
2022/03/30 05:57:00;;;;;;;1.63;0.45;;;;;;;;;;4901526;29;20056;-71
2022/03/30 05:59:27;;;;;;;1.13;0.45;;;;;;;;;;4898669;29;20055;-71
2022/03/30 06:01:53;;;;;;;1.42;0.40;;;;;;;;;;4902221;29;20047;-71
2022/03/30 06:04:19;;;;;;;1.83;0.50;;;;;;;;;;4912603;29;20524;-68
2022/03/30 06:06:45;;;;;;;2.03;0.65;;;;;;;;;;4912484;29;20036;-71
2022/03/30 06:09:12;;;;;;;8.50;1.67;;;;;;;;;;4910414;29;20049;-71
2022/03/30 06:11:38;;;;;;;4.03;0.95;;;;;;;;;;4894251;29;20118;-71
2022/03/30 06:14:04;;;;;;;4.15;0.80;;;;;;;;;;4901957;29;20037;-72
2022/03/30 06:16:31;;;;;;;3.17;0.73;;;;;;;;;;4877867;29;20049;-73
2022/03/30 06:18:57;;;;;;;2.15;0.70;;;;;;;;;;4894732;29;20053;-72
2022/03/30 06:21:24;;;;;;;3.78;1.27;;;;;;;;;;4901760;29;20040;-72
2022/03/30 06:23:50;;;;;;;6.13;1.10;;;;;;;;;;4912260;29;20052;-72
2022/03/30 06:26:16;;;;;;;1.85;0.80;;;;;;;;;;4911625;29;20055;-72
2022/03/30 06:28:43;;;;;;;2.13;1.02;;;;;;;;;;4912638;29;20048;-73
2022/03/30 06:31:13;;;;;;;4.00;0.95;;;;;;;;;;4912770;29;20048;-72
2022/03/30 06:33:39;;;;;;;2.58;0.85;;;;;;;;;;4908993;29;20781;-71
2022/03/30 06:36:05;;;;;;;2.85;0.70;;;;;;;;;;4912787;29;20359;-70
2022/03/30 06:38:31;;;;;;;3.28;0.80;;;;;;;;;;4912999;29;20122;-71
2022/03/30 06:40:58;;;;;;;2.25;0.73;;;;;;;;;;4894721;29;20086;-71
2022/03/30 06:43:24;;;;;;;3.38;1.00;;;;;;;;;;4912612;29;20048;-70
2022/03/30 06:45:50;;;;;;;3.45;1.35;;;;;;;;;;4912282;29;20095;-70
2022/03/30 06:48:16;;;;;;;7.90;1.17;;;;;;;;;;4912267;29;20051;-70
2022/03/30 06:50:42;;;;;;;2.55;0.90;;;;;;;;;;4911961;29;20153;-71
2022/03/30 06:53:10;;;;;;;1.58;0.85;;;;;;;;;;4911726;29;20524;-70
2022/03/30 06:55:38;;;;;;;3.05;1.10;;;;;;;;;;4911858;29;20123;-70
2022/03/30 06:58:05;;;;;;;3.33;1.20;;;;;;;;;;4912213;29;20046;-70
2022/03/30 07:00:31;;;;;;;5.13;1.15;;;;;;;;;;4912192;29;20182;-70
2022/03/30 07:02:57;;;;;;;4.97;0.82;;;;;;;;;;4911987;29;20491;-68
2022/03/30 07:05:23;;;;;;;1.65;0.90;;;;;;;;;;4911931;29;20036;-70
2022/03/30 07:10:35;;;;;;;3.25;1.02;;;;;;;;;;4911354;29;20048;-70
2022/03/30 07:13:03;;;;;;;3.60;1.20;;;;;;;;;;4911896;29;20044;-71
2022/03/30 07:15:30;;;;;;;3.58;1.45;;;;;;;;;;4911977;29;20067;-70
2022/03/30 07:17:58;;;;;;;5.35;1.23;;;;;;;;;;4911475;29;20059;-70
2022/03/30 07:20:26;;;;;;;2.47;1.10;;;;;;;;;;4911894;29;20076;-70
2022/03/30 07:22:52;;;;;;;2.33;1.10;;;;;;;;;;4911802;29;20036;-70
2022/03/30 07:25:20;;;;;;;4.32;1.08;;;;;;;;;;4911237;29;20055;-71
2022/03/30 07:27:47;;;;;;;1.30;0.98;;;;;;;;;;4910793;29;20043;-70
2022/03/30 07:30:14;;;;;;;2.28;1.38;;;;;;;;;;4911366;29;20107;-70
2022/03/30 07:32:42;;;;;;;3.47;1.58;;;;;;;;;;4911160;29;20036;-72
2022/03/30 07:35:09;;;;;;;2.17;1.10;;;;;;;;;;4911513;29;20427;-71
2022/03/30 07:37:35;;;;;;;3.58;1.42;;;;;;;;;;4911788;29;20643;-71
2022/03/30 07:40:03;;;;;;;5.97;1.52;;;;;;;;;;4911420;29;20059;-70
2022/03/30 07:42:29;;;;;;;3.05;0.80;;;;;;;;;;4910412;29;20521;-70
2022/03/30 07:44:55;;;;;;;4.25;1.30;;;;;;;;;;4911164;29;20518;-72
2022/03/30 07:47:21;;;;;;;5.82;1.40;;;;;;;;;;4911512;29;20040;-70
2022/03/30 07:49:48;;;;;;;3.72;1.73;;;;;;;;;;4911108;29;20383;-70
2022/03/30 07:52:15;;;;;;;1.98;1.33;;;;;;;;;;4911151;29;20119;-72
2022/03/30 07:54:41;;;;;;;3.70;1.15;;;;;;;;;;4911222;29;20040;-72
2022/03/30 07:57:08;;;;;;;4.63;1.70;;;;;;;;;;4910466;29;20044;-72
2022/03/30 07:59:34;;;;;;;5.07;1.40;;;;;;;;;;4910886;29;20047;-71
2022/03/30 08:02:00;;;;;;;3.47;1.20;;;;;;;;;;4911012;29;20128;-71
2022/03/30 08:04:26;;;;;;;5.18;1.60;;;;;;;;;;4911301;29;20051;-71
2022/03/30 08:06:53;;;;;;;4.38;2.05;;;;;;;;;;4910050;29;20062;-72
2022/03/30 08:09:19;;;;;;;6.22;1.40;;;;;;;;;;4910923;29;20044;-72
2022/03/30 08:11:46;;;;;;;6.13;1.20;;;;;;;;;;4910202;29;20040;-72
2022/03/30 08:14:12;;;;;;;8.35;1.98;;;;;;;;;;4910867;29;20039;-68
2022/03/30 08:16:39;;;;;;;4.88;1.20;;;;;;;;;;4910989;29;20077;-71
2022/03/30 08:19:06;;;;;;;3.47;2.03;;;;;;;;;;4910762;29;20057;-72
2022/03/30 08:24:20;;;;;;;4.10;2.63;;;;;;;;;;4910646;29;20052;-71
2022/03/30 08:26:47;;;;;;;5.85;2.42;;;;;;;;;;4914789;29;20060;-72
2022/03/30 08:29:13;;;;;;;6.70;3.05;;;;;;;;;;4929297;29;20040;-72
2022/03/30 08:31:39;;;;;;;5.30;2.97;;;;;;;;;;4929186;29;20122;-72
2022/03/30 08:34:05;;;;;;;6.25;3.03;;;;;;;;;;4942620;29;20048;-72
2022/03/30 08:36:31;;;;;;;5.95;2.88;;;;;;;;;;4910859;29;20107;-72
2022/03/30 08:38:58;;;;;;;12.07;3.38;;;;;;;;;;4910904;29;20048;-71
2022/03/30 08:41:25;;;;;;;7.80;2.97;;;;;;;;;;4910559;29;20040;-71
2022/03/30 08:43:51;;;;;;;7.93;2.85;;;;;;;;;;4911238;29;20047;-72
2022/03/30 08:46:17;;;;;;;10.63;2.60;;;;;;;;;;4929003;29;20122;-73
2022/03/30 08:48:44;;;;;;;7.32;2.58;;;;;;;;;;4928637;29;20950;-72
2022/03/30 08:51:10;;;;;;;6.72;3.08;;;;;;;;;;4929251;29;20399;-71
2022/03/30 08:53:37;;;;;;;8.55;3.08;;;;;;;;;;4927968;29;20047;-71
2022/03/30 08:56:03;;;;;;;4.13;2.22;;;;;;;;;;4910074;29;20059;-71
2022/03/30 08:58:30;;;;;;;4.63;1.95;;;;;;;;;;4910965;29;20396;-71
2022/03/30 09:01:08;;;;;;;3.78;2.10;;;;;;;;;;4910912;29;20040;-70
2022/03/30 09:03:35;;;;;;;3.42;1.50;;;;;;;;;;4913134;29;20112;-70
2022/03/30 09:06:01;;;;;;;6.15;1.50;;;;;;;;;;4928150;29;20050;-71
2022/03/30 09:08:27;;;;;;;7.40;1.80;;;;;;;;;;4928383;29;20036;-71
2022/03/30 09:10:54;;;;;;;5.38;1.70;;;;;;;;;;4914070;29;20180;-71
2022/03/30 09:13:20;;;;;;;4.50;1.63;;;;;;;;;;4912025;29;20097;-71
2022/03/30 09:15:48;;;;;;;2.60;1.77;;;;;;;;;;4928185;29;20043;-71
2022/03/30 09:18:15;;;;;;;6.57;2.30;;;;;;;;;;4929820;29;20474;-71
2022/03/30 09:20:43;;;;;;;3.85;2.00;;;;;;;;;;4926467;29;20116;-71
2022/03/30 09:23:11;;;;;;;6.50;2.92;;;;;;;;;;4916116;29;20052;-71
2022/03/30 09:25:37;;;;;;;5.37;3.13;;;;;;;;;;4931513;29;20051;-71
2022/03/30 09:28:03;;;;;;;10.77;3.80;;;;;;;;;;4931518;29;20497;-71
2022/03/30 09:30:30;;;;;;;5.40;3.40;;;;;;;;;;4932408;29;20063;-71
2022/03/30 09:32:58;;;;;;;5.00;3.35;;;;;;;;;;4930333;29;20040;-71
2022/03/30 09:35:27;;;;;;;7.60;3.50;;;;;;;;;;4914233;29;20040;-71
2022/03/30 09:38:13;;;;;;;4.18;2.85;;;;;;;;;;4914282;29;20573;-71
2022/03/30 09:40:41;;;;;;;5.03;2.10;;;;;;;;;;4913592;29;20048;-70
2022/03/30 09:43:17;;;;;;;3.83;1.42;;;;;;;;;;4918470;29;20520;-71
2022/03/30 09:45:43;;;;;;;9.88;2.10;;;;;;;;;;4931919;29;20115;-70
2022/03/30 09:48:10;;;;;;;4.30;1.20;;;;;;;;;;4931764;29;20773;-71
2022/03/30 09:50:41;;;;;;;2.08;1.00;;;;;;;;;;4914781;29;20058;-71
2022/03/30 09:53:11;;;;;;;2.58;0.90;;;;;;;;;;4930517;29;20208;-70
2022/03/30 09:55:38;;;;;;;3.58;0.60;;;;;;;;;;4930735;29;20059;-71
2022/03/30 09:58:07;;;;;;;2.50;0.75;;;;;;;;;;4931410;29;20126;-70
2022/03/30 10:00:33;;;;;;;9.75;1.33;;;;;;;;;;4931282;29;20484;-71
2022/03/30 10:02:59;;;;;;;6.28;1.15;;;;;;;;;;4907628;29;20438;-71
2022/03/30 10:05:25;;;;;;;3.45;0.88;;;;;;;;;;4913659;29;20710;-69
2022/03/30 10:07:52;;;;;;;3.72;1.00;;;;;;;;;;4913719;29;20565;-71
2022/03/30 10:10:19;;;;;;;5.25;0.75;;;;;;;;;;4912922;29;20050;-68
2022/03/30 10:12:46;;;;;;;4.15;0.90;;;;;;;;;;4920778;29;20040;-70
2022/03/30 10:15:12;;;;;;;4.30;0.88;;;;;;;;;;4931359;29;20489;-71
2022/03/30 10:17:39;;;;;;;2.28;0.90;;;;;;;;;;4918852;29;20048;-70
2022/03/30 10:20:06;;;;;;;11.23;1.25;;;;;;;;;;4913422;29;20052;-71
2022/03/30 10:22:52;;;;;;;4.07;1.15;;;;;;;;;;4920159;29;20040;-71
2022/03/30 10:25:27;;;;;;;2.92;0.73;;;;;;;;;;4930539;29;20051;-71
2022/03/30 10:27:56;;;;;;;2.05;0.90;;;;;;;;;;4930343;29;20064;-71
2022/03/30 10:30:25;;;;;;;5.20;1.30;;;;;;;;;;4930197;29;20127;-71
2022/03/30 10:32:57;;;;;;;3.45;0.73;;;;;;;;;;4920371;29;20044;-71
2022/03/30 10:35:36;;;;;;;3.30;0.70;;;;;;;;;;4917161;29;20039;-71
2022/03/30 10:38:03;;;;;;;4.63;0.90;;;;;;;;;;4928268;29;20046;-70
2022/03/30 10:40:29;;;;;;;2.28;0.80;;;;;;;;;;4930358;29;20071;-71
2022/03/30 10:42:58;;;;;;;2.05;0.70;;;;;;;;;;4917848;29;20080;-68
2022/03/30 10:45:24;;;;;;;2.85;1.02;;;;;;;;;;4913513;29;20052;-71
2022/03/30 10:48:05;;;;;;;4.53;1.05;;;;;;;;;;4913680;29;20077;-71
2022/03/30 10:50:34;;;;;;;5.40;0.88;;;;;;;;;;4927058;29;20466;-71
2022/03/30 10:53:00;;;;;;;5.88;1.23;;;;;;;;;;4930492;29;20050;-69
2022/03/30 10:55:26;;;;;;;2.58;0.80;;;;;;;;;;4928708;29;20126;-70
2022/03/30 10:57:57;;;;;;;2.95;0.80;;;;;;;;;;4912743;29;20115;-72
2022/03/30 11:00:25;;;;;;;2.28;1.00;;;;;;;;;;4927895;29;20043;-72
2022/03/30 11:02:51;;;;;;;7.28;1.25;;;;;;;;;;4930650;29;20078;-71
2022/03/30 11:05:28;;;;;;;3.95;0.90;;;;;;;;;;4929389;29;20048;-71
2022/03/30 11:07:54;;;;;;;4.72;1.02;;;;;;;;;;4912260;29;20506;-71
2022/03/30 11:10:31;;;;;;;3.38;0.95;;;;;;;;;;4912243;29;20047;-71
2022/03/30 11:12:58;;;;;;;2.47;0.88;;;;;;;;;;4912724;29;20048;-71
2022/03/30 11:15:25;;;;;;;2.50;0.90;;;;;;;;;;4915822;29;20635;-71
2022/03/30 11:17:51;;;;;;;7.80;1.25;;;;;;;;;;4930563;29;20486;-71
2022/03/30 11:20:20;;;;;;;6.32;1.70;;;;;;;;;;4930304;29;20043;-71
2022/03/30 11:22:47;;;;;;;4.07;0.88;;;;;;;;;;4928726;29;20048;-71
2022/03/30 11:25:20;;;;;;;5.00;1.00;;;;;;;;;;4915149;29;20492;-70
2022/03/30 11:28:08;;;;;;;7.97;2.35;;;;;;;;;;4929449;29;20052;-71
2022/03/30 11:30:38;;;;;;;7.82;3.60;;;;;;;;;;4929674;29;20043;-71
2022/03/30 11:33:28;;;;;;;6.22;0.93;;;;;;;;;;4930003;29;20072;-71
2022/03/30 11:35:54;;;;;;;5.20;1.00;;;;;;;;;;4937124;29;20079;-70
2022/03/30 11:38:24;;;;;;;2.97;0.95;;;;;;;;;;4937352;29;20035;-69
2022/03/30 11:40:51;;;;;;;3.38;1.60;;;;;;;;;;4919117;29;20055;-69
2022/03/30 11:43:19;;;;;;;8.47;1.10;;;;;;;;;;4911564;29;20046;-69
2022/03/30 11:45:46;;;;;;;2.33;1.00;;;;;;;;;;4922584;29;20129;-70
2022/03/30 11:48:13;;;;;;;5.55;1.02;;;;;;;;;;4930170;29;20044;-69
2022/03/30 11:50:39;;;;;;;3.05;0.90;;;;;;;;;;4936811;29;20528;-69
2022/03/30 11:53:08;;;;;;;4.50;1.02;;;;;;;;;;4941547;29;20047;-70
2022/03/30 11:55:35;;;;;;;2.63;1.15;;;;;;;;;;4937495;29;20628;-70
2022/03/30 11:58:03;;;;;;;4.67;1.17;;;;;;;;;;4940595;29;20055;-70
2022/03/30 12:00:31;;;;;;;4.68;1.20;;;;;;;;;;4941086;29;20295;-69
2022/03/30 12:02:57;;;;;;;4.47;0.88;;;;;;;;;;4941143;29;20078;-71
2022/03/30 12:05:24;;;;;;;2.28;1.00;;;;;;;;;;4942392;29;20101;-70
2022/03/30 12:07:53;;;;;;;4.70;1.27;;;;;;;;;;4942840;29;20477;-70
2022/03/30 12:10:20;;;;;;;4.60;1.02;;;;;;;;;;4937382;29;20051;-69
2022/03/30 12:12:49;;;;;;;5.50;1.05;;;;;;;;;;4932475;29;20069;-70
2022/03/30 12:15:16;;;;;;;4.45;1.02;;;;;;;;;;4942729;29;20059;-71
2022/03/30 12:17:43;;;;;;;5.32;1.00;;;;;;;;;;4929066;29;20047;-71
2022/03/30 12:20:10;;;;;;;8.32;1.63;;;;;;;;;;4931111;29;20086;-70
2022/03/30 12:22:37;;;;;;;6.03;2.60;;;;;;;;;;4940157;29;20498;-71
2022/03/30 12:25:22;;;;;;;5.07;1.30;;;;;;;;;;4939705;29;20055;-70
2022/03/30 12:27:48;;;;;;;4.05;0.90;;;;;;;;;;4937351;29;20207;-70
2022/03/30 12:30:15;;;;;;;3.03;2.25;;;;;;;;;;4940393;29;20043;-70
2022/03/30 12:32:41;;;;;;;8.57;2.80;;;;;;;;;;4941806;29;20680;-71
2022/03/30 12:35:12;;;;;;;11.50;4.25;;;;;;;;;;4941713;29;20047;-70
2022/03/30 12:37:41;;;;;;;7.35;4.32;;;;;;;;;;4941204;29;20047;-71
2022/03/30 12:40:09;;;;;;;7.20;2.25;;;;;;;;;;4932185;29;20056;-71
2022/03/30 12:42:35;;;;;;;7.53;1.40;;;;;;;;;;4928478;29;20041;-71
2022/03/30 12:45:05;;;;;;;8.85;6.00;;;;;;;;;;4921429;29;20520;-71
2022/03/30 12:47:32;;;;;;;5.88;4.28;;;;;;;;;;4930184;29;20040;-72
2022/03/30 12:50:00;;;;;;;3.53;2.00;;;;;;;;;;4925553;29;20113;-70
2022/03/30 12:52:32;;;;;;;8.23;3.70;;;;;;;;;;4936214;29;20428;-70
2022/03/30 12:55:13;;;;;;;3.72;1.90;;;;;;;;;;4939678;29;20054;-68
2022/03/30 12:57:48;;;;;;;14.70;8.75;;;;;;;;;;4928538;29;20225;-71
2022/03/30 13:00:16;;;;;;;4.40;2.75;;;;;;;;;;4936018;29;20054;-71
2022/03/30 13:02:42;;;;;;;9.82;4.05;;;;;;;;;;4941777;29;20039;-71
2022/03/30 13:05:09;;;;;;;10.52;5.95;;;;;;;;;;4921300;29;20054;-70
2022/03/30 13:07:48;;;;;;;10.75;4.47;;;;;;;;;;4940670;29;20134;-70
2022/03/30 13:10:16;;;;;;;6.72;2.20;;;;;;;;;;4940107;29;20513;-71
2022/03/30 13:12:43;;;;;;;4.68;1.27;;;;;;;;;;4938208;29;20084;-70
2022/03/30 13:15:11;;;;;;;8.38;3.00;;;;;;;;;;4928384;29;20099;-71
2022/03/30 13:17:54;;;;;;;7.68;4.95;;;;;;;;;;4927207;29;20119;-71
2022/03/30 13:20:20;;;;;;;7.97;1.13;;;;;;;;;;4911807;29;20071;-71
2022/03/30 13:22:52;;;;;;;8.82;5.75;;;;;;;;;;4936293;29;20528;-71
2022/03/30 13:25:27;;;;;;;6.28;0.80;;;;;;;;;;4927498;29;20390;-71
2022/03/30 13:27:53;;;;;;;6.13;2.10;;;;;;;;;;4911691;29;20056;-71
2022/03/30 13:30:19;;;;;;;3.50;0.90;;;;;;;;;;4910178;29;20048;-71
2022/03/30 13:32:45;;;;;;;6.45;1.10;;;;;;;;;;4908871;29;20044;-71
2022/03/30 13:35:11;;;;;;;7.38;4.18;;;;;;;;;;4909798;29;20044;-72
2022/03/30 13:37:37;;;;;;;4.70;0.82;;;;;;;;;;4892837;29;20048;-71
2022/03/30 13:40:05;;;;;;;3.45;0.77;;;;;;;;;;4908576;29;20095;-70
2022/03/30 13:42:34;;;;;;;4.32;1.08;;;;;;;;;;4909266;29;20115;-71
2022/03/30 13:45:01;;;;;;;9.35;3.88;;;;;;;;;;4909175;29;20040;-71
2022/03/30 13:47:28;;;;;;;3.63;0.90;;;;;;;;;;4908901;29;20036;-70
2022/03/30 13:49:55;;;;;;;5.65;2.92;;;;;;;;;;4909753;29;20107;-71
2022/03/30 13:52:24;;;;;;;4.47;1.10;;;;;;;;;;4909276;29;20051;-68
2022/03/30 13:54:50;;;;;;;4.68;0.93;;;;;;;;;;4908071;29;20132;-71
2022/03/30 13:57:16;;;;;;;6.07;1.70;;;;;;;;;;4909431;29;20047;-70
2022/03/30 13:59:43;;;;;;;4.35;2.33;;;;;;;;;;4909738;29;20069;-69
2022/03/30 14:02:10;;;;;;;5.78;0.90;;;;;;;;;;4909042;29;20056;-69
2022/03/30 14:04:37;;;;;;;6.35;1.10;;;;;;;;;;4910897;29;20146;-69
2022/03/30 14:07:04;;;;;;;7.72;2.45;;;;;;;;;;4911864;29;20096;-69
2022/03/30 14:09:31;;;;;;;2.97;1.25;;;;;;;;;;4895126;29;20175;-69
2022/03/30 14:11:59;;;;;;;6.82;1.10;;;;;;;;;;4908853;29;20459;-69
2022/03/30 14:14:26;;;;;;;5.80;1.10;;;;;;;;;;4912494;29;20044;-69
2022/03/30 14:16:52;;;;;;;4.90;1.10;;;;;;;;;;4912486;29;20127;-69
2022/03/30 14:19:20;;;;;;;5.38;1.00;;;;;;;;;;4912895;29;20064;-69
2022/03/30 14:21:46;;;;;;;6.30;2.85;;;;;;;;;;4908671;29;20047;-69
2022/03/30 14:24:12;;;;;;;4.10;1.00;;;;;;;;;;4911052;29;20088;-69
2022/03/30 14:26:39;;;;;;;7.53;0.70;;;;;;;;;;4911613;29;20081;-69
2022/03/30 14:29:06;;;;;;;4.10;0.80;;;;;;;;;;4911842;29;20047;-69
2022/03/30 14:31:33;;;;;;;7.35;1.15;;;;;;;;;;4908955;29;20044;-69
2022/03/30 14:33:59;;;;;;;17.08;1.50;;;;;;;;;;4912694;29;20040;-69
2022/03/30 14:36:25;;;;;;;7.57;1.00;;;;;;;;;;4912171;29;20119;-69
2022/03/30 14:38:51;;;;;;;6.30;1.15;;;;;;;;;;4912127;29;20051;-69
2022/03/30 14:41:17;;;;;;;13.43;1.05;;;;;;;;;;4911333;29;20099;-69
2022/03/30 14:43:44;;;;;;;7.20;0.80;;;;;;;;;;4912129;29;20037;-68
2022/03/30 14:46:10;;;;;;;4.38;0.80;;;;;;;;;;4912454;29;20394;-70
2022/03/30 14:48:36;;;;;;;3.92;0.75;;;;;;;;;;4912801;29;20040;-69
2022/03/30 14:51:02;;;;;;;2.03;0.70;;;;;;;;;;4912447;29;20052;-68
2022/03/30 14:53:29;;;;;;;3.72;1.45;;;;;;;;;;4911517;29;20047;-71
2022/03/30 14:55:55;;;;;;;5.68;1.00;;;;;;;;;;4910897;29;20064;-70
2022/03/30 14:58:21;;;;;;;9.68;1.58;;;;;;;;;;4910911;29;20048;-70
2022/03/30 15:00:48;;;;;;;3.17;0.90;;;;;;;;;;4911900;29;20055;-70
2022/03/30 15:03:14;;;;;;;4.32;0.75;;;;;;;;;;4912040;29;20048;-70
2022/03/30 15:05:41;;;;;;;3.70;0.63;;;;;;;;;;4911985;29;20051;-71
2022/03/30 15:08:08;;;;;;;2.33;0.50;;;;;;;;;;4894489;29;20427;-71
2022/03/30 15:10:35;;;;;;;3.47;0.60;;;;;;;;;;4911219;29;20044;-70
2022/03/30 15:13:01;;;;;;;2.05;0.60;;;;;;;;;;4894791;29;20087;-71
2022/03/30 15:15:28;;;;;;;3.55;0.85;;;;;;;;;;4910963;29;20102;-71
2022/03/30 15:17:54;;;;;;;2.20;0.43;;;;;;;;;;4911496;29;20059;-70
2022/03/30 15:20:21;;;;;;;4.00;0.85;;;;;;;;;;4911608;29;20043;-70
2022/03/30 15:22:47;;;;;;;3.38;0.75;;;;;;;;;;4911415;29;20047;-70
2022/03/30 15:25:13;;;;;;;4.28;0.80;;;;;;;;;;4910705;29;20537;-71
2022/03/30 15:27:40;;;;;;;2.80;0.60;;;;;;;;;;4910875;29;20070;-71
2022/03/30 15:30:08;;;;;;;3.22;0.52;;;;;;;;;;4911581;29;20879;-71
2022/03/30 15:32:35;;;;;;;2.08;0.77;;;;;;;;;;4911742;29;20052;-70
2022/03/30 15:35:01;;;;;;;4.72;0.80;;;;;;;;;;4911458;29;20053;-71
2022/03/30 15:37:28;;;;;;;4.03;0.50;;;;;;;;;;4911084;29;20088;-70
2022/03/30 15:39:54;;;;;;;3.80;0.50;;;;;;;;;;4893411;29;20084;-70
2022/03/30 15:42:21;;;;;;;3.95;0.50;;;;;;;;;;4911149;29;20154;-70
2022/03/30 15:44:47;;;;;;;3.67;0.65;;;;;;;;;;4911000;29;20107;-70
2022/03/30 15:47:14;;;;;;;8.40;0.98;;;;;;;;;;4910363;29;20135;-71
2022/03/30 15:49:42;;;;;;;5.72;1.65;;;;;;;;;;4910578;29;20051;-69
2022/03/30 15:52:27;;;;;;;2.60;0.90;;;;;;;;;;4252948;23;23118;-71
2022/03/30 15:54:53;;;;;;;5.60;0.90;;;;;;;;;;4981475;28;20054;-73
2022/03/30 15:57:19;;;;;;;6.15;1.00;;;;;;;;;;4979551;28;20046;-73
2022/03/30 15:59:47;;;;;;;6.07;3.42;;;;;;;;;;4985679;28;20042;-73
2022/03/30 16:02:13;;;;;;;7.97;1.60;;;;;;;;;;4984529;28;20052;-69
2022/03/30 16:04:40;;;;;;;4.25;2.65;;;;;;;;;;4985435;28;20073;-73
2022/03/30 16:07:06;;;;;;;5.47;3.33;;;;;;;;;;4984942;28;20046;-71
2022/03/30 16:09:35;;;;;;;8.80;1.40;;;;;;;;;;4966628;28;20042;-73
2022/03/30 16:12:10;;;;;;;10.98;2.42;;;;;;;;;;4984224;28;20050;-73
2022/03/30 16:14:36;;;;;;;5.95;1.02;;;;;;;;;;4983993;28;20845;-72
2022/03/30 16:17:03;;;;;;;6.32;1.83;;;;;;;;;;4981508;28;20097;-77
2022/03/30 16:19:32;;;;;;;11.27;2.25;;;;;;;;;;4984964;28;20475;-73
2022/03/30 16:21:58;;;;;;;5.88;0.85;;;;;;;;;;4979959;28;20089;-75
2022/03/30 16:24:24;;;;;;;2.75;0.68;;;;;;;;;;4983724;28;20049;-74
2022/03/30 16:26:52;;;;;;;5.72;1.17;;;;;;;;;;4970649;28;20058;-74
2022/03/30 16:29:21;;;;;;;4.40;1.10;;;;;;;;;;4966285;28;20129;-74
2022/03/30 16:31:48;;;;;;;2.92;1.55;;;;;;;;;;4963156;28;20046;-74
2022/03/30 16:34:16;;;;;;;3.53;0.88;;;;;;;;;;4966647;28;20061;-74
2022/03/30 16:36:43;;;;;;;8.57;1.05;;;;;;;;;;4988754;28;20046;-73
2022/03/30 16:39:11;;;;;;;5.85;0.80;;;;;;;;;;4966045;28;20046;-75
2022/03/30 16:41:37;;;;;;;5.07;1.15;;;;;;;;;;4980405;28;20053;-74
2022/03/30 16:44:04;;;;;;;3.50;0.70;;;;;;;;;;4964992;28;20387;-72
2022/03/30 16:46:30;;;;;;;3.15;1.08;;;;;;;;;;4983140;28;20096;-74
2022/03/30 16:48:56;;;;;;;4.93;1.00;;;;;;;;;;4983353;28;20096;-73
2022/03/30 16:51:24;;;;;;;62.10;32.00;;;;;;;;;;4984086;28;20338;-73
2022/03/30 16:53:51;;;;;;;6.40;1.33;;;;;;;;;;4978787;28;20855;-76
2022/03/30 16:56:17;;;;;;;4.40;1.02;;;;;;;;;;4966596;28;20080;-77
2022/03/30 16:58:43;;;;;;;2.45;1.30;;;;;;;;;;4984182;28;20463;-77
2022/03/30 17:01:12;;;;;;;7.30;1.35;;;;;;;;;;4973598;28;20046;-75
2022/03/30 17:03:40;;;;;;;11.30;2.05;;;;;;;;;;4961882;28;20078;-73
2022/03/30 17:06:06;;;;;;;4.80;1.30;;;;;;;;;;4967760;28;20520;-78
2022/03/30 17:11:17;;;;;;;4.75;1.00;;;;;;;;;;4964236;28;20138;-76
2022/03/30 17:13:44;;;;;;;5.63;1.15;;;;;;;;;;4962976;28;20043;-75
2022/03/30 17:16:10;;;;;;;4.05;1.00;;;;;;;;;;4983298;28;20129;-75
2022/03/30 17:18:36;;;;;;;5.22;0.98;;;;;;;;;;4961968;28;20121;-74
2022/03/30 17:21:04;;;;;;;4.25;1.30;;;;;;;;;;4983279;28;20133;-68
2022/03/30 17:23:30;;;;;;;13.68;8.32;;;;;;;;;;4982347;28;20510;-74
2022/03/30 17:25:57;;;;;;;5.20;1.45;;;;;;;;;;4983041;28;20110;-74
2022/03/30 17:28:23;;;;;;;7.25;3.47;;;;;;;;;;4959745;28;20128;-74
2022/03/30 17:30:49;;;;;;;22.77;16.42;;;;;;;;;;4978965;28;20039;-74
2022/03/30 17:33:16;;;;;;;10.68;3.65;;;;;;;;;;4959254;28;20531;-73
2022/03/30 17:35:42;;;;;;;5.38;0.90;;;;;;;;;;4977275;28;20397;-76
2022/03/30 17:38:08;;;;;;;10.52;0.85;;;;;;;;;;4977686;28;20046;-74
2022/03/30 17:40:36;;;;;;;10.57;4.75;;;;;;;;;;4962877;28;20074;-77
2022/03/30 17:43:03;;;;;;;8.93;3.88;;;;;;;;;;4982362;28;20148;-75
2022/03/30 17:45:32;;;;;;;3.90;1.02;;;;;;;;;;4964769;28;20616;-77
2022/03/30 17:51:50;;;;;;;4.50;1.48;;;;;;;;;;4983532;28;20045;-76
2022/03/30 17:53:30;;;;;;;6.93;3.33;;;;;;;;;;4964448;28;20083;-75
2022/03/30 17:55:57;;;;;;;3.53;1.00;;;;;;;;;;4983463;28;20086;-73
2022/03/30 17:58:25;;;;;;;9.23;3.85;;;;;;;;;;4964858;28;20042;-73
2022/03/30 18:00:52;;;;;;;14.13;5.13;;;;;;;;;;4964548;28;20063;-71
2022/03/30 18:03:18;;;;;;;9.18;2.08;;;;;;;;;;4982144;28;20062;-72
2022/03/30 18:05:44;;;;;;;12.10;4.50;;;;;;;;;;4983514;28;20074;-72
2022/03/30 18:08:11;;;;;;;9.93;4.22;;;;;;;;;;4982381;28;20057;-73
2022/03/30 18:10:40;;;;;;;17.95;8.65;;;;;;;;;;4963373;28;20051;-72
2022/03/30 18:13:07;;;;;;;4.65;2.22;;;;;;;;;;4964653;28;20109;-71
2022/03/30 18:15:34;;;;;;;15.70;5.68;;;;;;;;;;4964857;28;20602;-71
2022/03/30 18:18:01;;;;;;;7.75;3.00;;;;;;;;;;4982638;28;20057;-71
2022/03/30 18:20:27;;;;;;;5.03;1.05;;;;;;;;;;4982347;28;20050;-71
2022/03/30 18:22:54;;;;;;;18.75;6.95;;;;;;;;;;4956668;28;20054;-70
2022/03/30 18:25:20;;;;;;;13.13;6.75;;;;;;;;;;4982082;28;20046;-71
2022/03/30 18:27:46;;;;;;;6.07;1.20;;;;;;;;;;4983710;28;20034;-71
2022/03/30 18:30:12;;;;;;;6.80;1.85;;;;;;;;;;4962607;28;20047;-71
2022/03/30 18:32:39;;;;;;;5.82;2.72;;;;;;;;;;4982402;28;20559;-71
2022/03/30 18:35:05;;;;;;;12.00;8.43;;;;;;;;;;4981501;28;20102;-71
2022/03/30 18:37:31;;;;;;;5.35;1.70;;;;;;;;;;4976491;28;20053;-70
2022/03/30 18:39:58;;;;;;;3.83;0.90;;;;;;;;;;4962655;28;20057;-70
2022/03/30 18:42:25;;;;;;;5.35;1.23;;;;;;;;;;4984766;28;20057;-70
2022/03/30 18:44:52;;;;;;;4.80;1.00;;;;;;;;;;4983983;28;20046;-69
2022/03/30 18:47:18;;;;;;;8.88;3.13;;;;;;;;;;4968412;28;20053;-71
2022/03/30 18:49:44;;;;;;;6.07;1.20;;;;;;;;;;4979004;28;20082;-71
2022/03/30 18:52:11;;;;;;;7.57;3.65;;;;;;;;;;4982172;28;20385;-70
2022/03/30 18:54:39;;;;;;;6.55;2.55;;;;;;;;;;4984643;28;20054;-70
2022/03/30 18:57:06;;;;;;;6.93;1.90;;;;;;;;;;4981962;28;20046;-70
2022/03/30 18:59:32;;;;;;;6.50;2.10;;;;;;;;;;4983436;28;20035;-70
2022/03/30 19:01:58;;;;;;;7.30;2.53;;;;;;;;;;4984535;28;20046;-70
2022/03/30 19:04:25;;;;;;;4.05;1.10;;;;;;;;;;4984609;28;20077;-70
2022/03/30 19:06:51;;;;;;;7.40;1.58;;;;;;;;;;4985083;28;20398;-70
2022/03/30 19:09:18;;;;;;;12.27;4.07;;;;;;;;;;4967187;28;20042;-72
2022/03/30 19:11:45;;;;;;;12.38;3.85;;;;;;;;;;4984617;28;20135;-70
2022/03/30 19:14:12;;;;;;;23.58;9.00;;;;;;;;;;4982649;28;20053;-70
2022/03/30 19:16:38;;;;;;;11.48;3.85;;;;;;;;;;4983435;28;20042;-70
2022/03/30 19:19:05;;;;;;;6.03;1.60;;;;;;;;;;4985141;28;20085;-70
2022/03/30 19:21:31;;;;;;;9.20;2.97;;;;;;;;;;4982279;28;20141;-70
2022/03/30 19:23:58;;;;;;;10.65;1.27;;;;;;;;;;4984023;28;20050;-70
2022/03/30 19:26:24;;;;;;;3.08;1.02;;;;;;;;;;4984899;28;20046;-70
2022/03/30 19:28:51;;;;;;;4.75;0.80;;;;;;;;;;4984475;28;20042;-71
2022/03/30 19:31:17;;;;;;;5.57;1.45;;;;;;;;;;4968349;28;20042;-71
2022/03/30 19:33:45;;;;;;;6.53;2.10;;;;;;;;;;4983706;28;20507;-69
2022/03/30 19:36:13;;;;;;;5.63;1.83;;;;;;;;;;4984566;28;20848;-69
2022/03/30 19:38:39;;;;;;;2.85;0.90;;;;;;;;;;4977520;28;20050;-69
2022/03/30 19:41:06;;;;;;;4.88;1.70;;;;;;;;;;4979441;28;20065;-69
2022/03/30 19:43:32;;;;;;;5.03;1.08;;;;;;;;;;4980819;28;20053;-69
2022/03/30 19:45:58;;;;;;;10.38;3.65;;;;;;;;;;4973583;28;20047;-70
2022/03/30 19:48:25;;;;;;;8.05;3.13;;;;;;;;;;4981582;28;20053;-69
2022/03/30 19:50:52;;;;;;;9.77;3.30;;;;;;;;;;4976820;28;20468;-69
2022/03/30 19:53:18;;;;;;;15.00;4.30;;;;;;;;;;4970598;28;20150;-69
2022/03/30 19:55:45;;;;;;;13.43;4.38;;;;;;;;;;4961680;28;20500;-69
2022/03/30 19:58:11;;;;;;;10.48;3.92;;;;;;;;;;4944156;28;20034;-69
2022/03/30 20:00:37;;;;;;;16.23;3.72;;;;;;;;;;4960661;28;20050;-69